Time;durP1;ratioP1;P1;durP2;ratioP2;P2;SDS_P1;SDS_P2;PMS_P1;PMS_P2;Temp;Humidity;BMP_temperature;BMP_pressure;BME280_temperature;BME280_humidity;BME280_pressure;Samples;Min_cycle;Max_cycle;Signal;HPM_P1;HPM_P2
2021/01/02 00:00:52;;;;;;;102.95;54.55;;;5.40;99.90;;;;;;5071704;28;20059;-75
2021/01/02 00:03:31;;;;;;;93.20;48.42;;;5.40;99.90;;;;;;5071888;28;20780;-75
2021/01/02 00:06:14;;;;;;;103.68;53.95;;;5.40;99.90;;;;;;5072258;28;20023;-75
2021/01/02 00:08:46;;;;;;;100.80;48.72;;;5.40;99.90;;;;;;5072142;28;20482;-75
2021/01/02 00:11:28;;;;;;;104.32;50.33;;;5.30;99.90;;;;;;5071854;28;20111;-75
2021/01/02 00:14:23;;;;;;;114.53;56.47;;;5.30;99.90;;;;;;5072097;28;20626;-75
2021/01/02 00:17:14;;;;;;;96.38;47.45;;;5.30;99.90;;;;;;5054061;28;20028;-76
2021/01/02 00:20:03;;;;;;;81.85;43.83;;;5.30;99.90;;;;;;5072110;28;20032;-75
2021/01/02 00:22:53;;;;;;;93.25;46.78;;;5.20;99.90;;;;;;5071877;28;20035;-75
2021/01/02 00:25:22;;;;;;;136.95;62.92;;;5.20;99.90;;;;;;5071921;28;20020;-75
2021/01/02 00:28:00;;;;;;;182.52;93.82;;;5.10;99.90;;;;;;5071908;28;20066;-75
2021/01/02 00:30:35;;;;;;;188.75;89.53;;;5.10;99.90;;;;;;5071649;28;20055;-75
2021/01/02 00:33:19;;;;;;;152.45;76.97;;;5.10;99.90;;;;;;5071812;28;20021;-75
2021/01/02 00:35:48;;;;;;;120.65;65.60;;;5.10;99.90;;;;;;5071872;28;20103;-75
2021/01/02 00:38:17;;;;;;;112.57;62.70;;;5.10;99.90;;;;;;5071821;28;20031;-75
2021/01/02 00:40:43;;;;;;;117.63;60.80;;;5.10;99.90;;;;;;5071591;28;20066;-75
2021/01/02 00:43:09;;;;;;;124.85;66.47;;;5.10;99.90;;;;;;5071647;28;20046;-75
2021/01/02 00:45:36;;;;;;;149.85;74.53;;;5.10;99.90;;;;;;5071512;28;20468;-75
2021/01/02 00:48:04;;;;;;;151.43;77.22;;;5.10;99.90;;;;;;5070979;28;20017;-75
2021/01/02 00:50:31;;;;;;;138.75;72.63;;;5.10;99.90;;;;;;5053323;28;20463;-75
2021/01/02 00:53:03;;;;;;;149.15;72.88;;;5.00;99.90;;;;;;5071275;28;20032;-75
2021/01/02 00:55:57;;;;;;;235.38;90.40;;;4.90;99.90;;;;;;5071341;28;20111;-75
2021/01/02 00:58:41;;;;;;;357.38;115.45;;;4.90;99.90;;;;;;5070834;28;20369;-76
2021/01/02 01:01:13;;;;;;;364.80;141.38;;;4.90;99.90;;;;;;5070287;28;20032;-75
2021/01/02 01:03:45;;;;;;;207.68;87.95;;;4.90;99.90;;;;;;5070591;28;20029;-76
2021/01/02 01:06:16;;;;;;;215.63;85.22;;;5.00;99.90;;;;;;5070308;28;20016;-76
2021/01/02 01:08:44;;;;;;;216.30;84.90;;;5.00;99.90;;;;;;5070393;28;20043;-75
2021/01/02 01:11:12;;;;;;;228.70;85.82;;;5.00;99.90;;;;;;5070589;28;20344;-76
2021/01/02 01:13:38;;;;;;;190.27;74.80;;;4.90;99.90;;;;;;5070787;28;20393;-75
2021/01/02 01:16:04;;;;;;;294.23;113.80;;;4.90;99.90;;;;;;5071032;28;20044;-75
2021/01/02 01:18:39;;;;;;;162.02;65.65;;;4.90;99.90;;;;;;5071070;28;20078;-76
2021/01/02 01:21:11;;;;;;;172.93;72.60;;;4.90;99.90;;;;;;5071017;28;20049;-76
2021/01/02 01:24:13;;;;;;;139.02;65.32;;;4.90;99.90;;;;;;5052655;28;20024;-76
2021/01/02 01:26:57;;;;;;;171.43;76.38;;;4.90;99.90;;;;;;5071096;28;20066;-76
2021/01/02 01:29:35;;;;;;;141.35;60.75;;;4.90;99.90;;;;;;5070816;28;20040;-76
2021/01/02 01:32:04;;;;;;;145.45;60.97;;;4.90;99.90;;;;;;5071079;28;20024;-76
2021/01/02 01:34:33;;;;;;;83.28;42.95;;;4.90;99.90;;;;;;5053043;28;20082;-76
2021/01/02 01:37:05;;;;;;;76.13;41.55;;;4.90;99.90;;;;;;5070951;28;20021;-76
2021/01/02 01:39:32;;;;;;;66.13;37.40;;;4.80;99.90;;;;;;5052834;28;20064;-76
2021/01/02 01:42:01;;;;;;;60.42;32.28;;;4.80;99.90;;;;;;5070774;28;20029;-76
2021/01/02 01:44:55;;;;;;;61.28;30.48;;;4.70;99.90;;;;;;5052961;28;20024;-76
2021/01/02 01:47:22;;;;;;;58.20;33.80;;;4.70;99.90;;;;;;5070853;28;20028;-76
2021/01/02 01:50:19;;;;;;;61.30;33.58;;;4.70;99.90;;;;;;5070928;28;20025;-76
2021/01/02 01:52:51;;;;;;;41.80;25.38;;;4.60;99.90;;;;;;5052468;28;20033;-76
2021/01/02 01:55:29;;;;;;;48.63;25.90;;;4.70;99.90;;;;;;5070861;28;20074;-76
2021/01/02 01:58:15;;;;;;;45.55;24.58;;;4.80;99.90;;;;;;5071105;28;20794;-76
2021/01/02 02:00:50;;;;;;;39.58;22.13;;;4.80;99.90;;;;;;5070629;28;20478;-76
2021/01/02 02:03:26;;;;;;;43.33;25.38;;;4.90;99.90;;;;;;5070697;28;20086;-76
2021/01/02 02:06:07;;;;;;;44.63;25.45;;;4.90;99.90;;;;;;5052778;28;20056;-76
2021/01/02 02:08:43;;;;;;;88.15;39.63;;;4.90;99.90;;;;;;5070656;28;20016;-76
2021/01/02 02:11:33;;;;;;;58.10;31.30;;;4.80;99.90;;;;;;5070486;28;20060;-76
2021/01/02 02:14:43;;;;;;;45.28;25.77;;;4.70;99.90;;;;;;5070759;28;20056;-76
2021/01/02 02:17:16;;;;;;;37.72;23.50;;;4.60;99.90;;;;;;5070871;28;20098;-76
2021/01/02 02:20:04;;;;;;;42.47;24.33;;;4.60;99.90;;;;;;5070591;28;20078;-76
2021/01/02 02:22:35;;;;;;;53.05;28.25;;;4.50;99.90;;;;;;5070535;28;20032;-76
2021/01/02 02:25:03;;;;;;;109.10;53.25;;;4.50;99.90;;;;;;5070376;28;20021;-76
2021/01/02 02:27:33;;;;;;;86.32;43.38;;;4.50;99.90;;;;;;5070549;28;20032;-76
2021/01/02 02:30:17;;;;;;;44.50;26.30;;;4.50;99.90;;;;;;5070413;28;20043;-76
2021/01/02 02:32:45;;;;;;;42.38;26.10;;;4.50;99.90;;;;;;5070483;28;20068;-76
2021/01/02 02:35:16;;;;;;;38.30;21.33;;;4.40;99.90;;;;;;5072341;28;20112;-76
2021/01/02 02:37:48;;;;;;;38.28;20.75;;;4.40;99.90;;;;;;5074110;28;20405;-76
2021/01/02 02:40:20;;;;;;;35.67;21.52;;;4.30;99.90;;;;;;5056195;28;20703;-76
2021/01/02 02:43:00;;;;;;;214.45;36.08;;;4.40;99.90;;;;;;5074028;28;20107;-75
2021/01/02 02:45:31;;;;;;;48.35;26.85;;;4.40;99.90;;;;;;5073867;28;20103;-74
2021/01/02 02:48:04;;;;;;;35.78;20.92;;;4.40;99.90;;;;;;5074128;28;20110;-74
2021/01/02 02:50:31;;;;;;;47.85;26.10;;;4.50;99.90;;;;;;5073791;28;20031;-74
2021/01/02 02:53:09;;;;;;;50.50;26.85;;;4.50;99.90;;;;;;5073700;28;20020;-74
2021/01/02 02:55:40;;;;;;;43.00;24.27;;;4.40;99.90;;;;;;5073706;28;20044;-74
2021/01/02 02:58:06;;;;;;;;;;;4.40;99.90;;;;;;5074385;28;20020;-75
2021/01/02 03:00:33;;;;;;;27.00;16.95;;;4.40;99.90;;;;;;5073690;28;19905;-76
2021/01/02 03:03:01;;;;;;;27.90;14.85;;;4.40;99.90;;;;;;5073740;28;20171;-76
2021/01/02 03:05:28;;;;;;;28.58;16.67;;;4.40;99.90;;;;;;5073799;28;20078;-76
2021/01/02 03:07:54;;;;;;;27.50;16.95;;;4.40;99.90;;;;;;5073684;28;20128;-76
2021/01/02 03:10:21;;;;;;;48.85;24.42;;;4.40;99.90;;;;;;5073533;28;20107;-76
2021/01/02 03:12:49;;;;;;;45.65;25.60;;;4.40;99.90;;;;;;5073577;28;20049;-76
2021/01/02 03:15:17;;;;;;;41.45;25.55;;;4.40;99.90;;;;;;5073645;28;20012;-76
2021/01/02 03:17:46;;;;;;;34.85;21.42;;;4.40;99.90;;;;;;5073568;28;20017;-76
2021/01/02 03:20:13;;;;;;;34.38;18.02;;;4.40;99.90;;;;;;5055345;28;20437;-76
2021/01/02 03:22:45;;;;;;;30.85;17.55;;;4.40;99.90;;;;;;5073206;28;20044;-76
2021/01/02 03:25:12;;;;;;;27.45;17.23;;;4.30;99.90;;;;;;5073273;28;20017;-76
2021/01/02 03:27:39;;;;;;;29.70;17.25;;;4.30;99.90;;;;;;5073161;28;20055;-76
2021/01/02 03:30:07;;;;;;;35.85;19.98;;;4.20;99.90;;;;;;5072822;28;20556;-75
2021/01/02 03:32:35;;;;;;;32.00;17.35;;;4.20;99.90;;;;;;5073080;28;20036;-75
2021/01/02 03:35:01;;;;;;;27.58;14.85;;;4.20;99.90;;;;;;5073012;28;20040;-75
2021/01/02 03:37:27;;;;;;;24.85;13.27;;;4.20;99.90;;;;;;5072998;28;20041;-75
2021/01/02 03:39:53;;;;;;;24.27;13.48;;;4.30;99.90;;;;;;5072930;28;20025;-75
2021/01/02 03:42:19;;;;;;;23.45;14.15;;;4.30;99.90;;;;;;5072881;28;20035;-75
2021/01/02 03:44:44;;;;;;;29.00;16.38;;;4.30;99.90;;;;;;5072874;28;20029;-75
2021/01/02 03:47:11;;;;;;;27.90;15.68;;;4.30;99.90;;;;;;5072260;28;20064;-75
2021/01/02 03:49:37;;;;;;;25.98;14.88;;;4.30;99.90;;;;;;5072845;28;20028;-75
2021/01/02 03:52:04;;;;;;;28.92;15.70;;;4.30;99.90;;;;;;5072702;28;20039;-75
2021/01/02 03:54:31;;;;;;;27.67;15.95;;;4.40;99.90;;;;;;5072782;28;20028;-75
2021/01/02 03:56:57;;;;;;;38.47;20.35;;;4.50;99.90;;;;;;5072719;28;20032;-76
2021/01/02 03:59:23;;;;;;;32.67;19.67;;;4.50;99.90;;;;;;5072477;28;20095;-75
2021/01/02 04:01:57;;;;;;;28.25;16.17;;;4.60;99.90;;;;;;5072612;28;20031;-76
2021/01/02 04:04:23;;;;;;;29.45;16.65;;;4.60;99.90;;;;;;5072345;28;20021;-74
2021/01/02 04:06:52;;;;;;;47.33;16.92;;;4.60;99.90;;;;;;5072407;28;20481;-75
2021/01/02 04:09:19;;;;;;;26.20;15.38;;;4.60;99.90;;;;;;5072459;28;20024;-75
2021/01/02 04:11:46;;;;;;;30.98;19.85;;;4.60;99.90;;;;;;5072402;28;20036;-75
2021/01/02 04:14:13;;;;;;;27.25;18.45;;;4.60;99.90;;;;;;5072164;28;20040;-76
2021/01/02 04:16:40;;;;;;;28.00;16.23;;;4.50;99.90;;;;;;5072166;28;20032;-76
2021/01/02 04:19:07;;;;;;;38.08;17.25;;;4.40;99.90;;;;;;5072237;28;20400;-76
2021/01/02 04:21:33;;;;;;;22.73;15.32;;;4.30;99.90;;;;;;5072038;28;20035;-75
2021/01/02 04:23:59;;;;;;;31.05;14.82;;;4.30;99.90;;;;;;5072081;28;20070;-75
2021/01/02 04:26:25;;;;;;;22.33;13.18;;;4.30;99.90;;;;;;5072034;28;20028;-75
2021/01/02 04:28:52;;;;;;;19.98;11.63;;;4.30;99.90;;;;;;5071683;28;20425;-75
2021/01/02 04:31:19;;;;;;;21.52;11.65;;;4.40;99.90;;;;;;5072043;28;20052;-75
2021/01/02 04:33:45;;;;;;;15.75;10.05;;;4.40;99.90;;;;;;5071933;28;20032;-75
2021/01/02 04:36:15;;;;;;;18.90;11.35;;;4.40;99.90;;;;;;5071851;28;20574;-75
2021/01/02 04:38:41;;;;;;;15.68;10.30;;;4.40;99.90;;;;;;5071728;28;20029;-75
2021/01/02 04:41:07;;;;;;;17.83;10.63;;;4.30;99.90;;;;;;5071652;28;20029;-75
2021/01/02 04:43:34;;;;;;;29.25;12.60;;;4.40;99.90;;;;;;5071694;28;20025;-76
2021/01/02 04:46:02;;;;;;;28.17;10.40;;;4.40;99.90;;;;;;5071571;28;20107;-75
2021/01/02 04:48:28;;;;;;;20.05;10.13;;;4.40;99.90;;;;;;5071642;28;20475;-75
2021/01/02 04:50:54;;;;;;;22.25;13.50;;;4.40;99.90;;;;;;5071516;28;20063;-75
2021/01/02 04:53:21;;;;;;;39.25;19.67;;;4.50;99.90;;;;;;5071564;28;20028;-75
2021/01/02 04:55:47;;;;;;;33.05;18.92;;;4.40;99.90;;;;;;5053560;28;20020;-75
2021/01/02 04:58:19;;;;;;;31.10;17.85;;;4.40;99.90;;;;;;5070590;28;20021;-75
2021/01/02 05:00:47;;;;;;;27.73;15.77;;;4.40;99.90;;;;;;5071242;28;20063;-75
2021/01/02 05:03:14;;;;;;;27.63;16.52;;;4.40;99.90;;;;;;5071334;28;20028;-75
2021/01/02 05:05:40;;;;;;;41.20;23.70;;;4.40;99.90;;;;;;5071344;28;20031;-75
2021/01/02 05:08:06;;;;;;;43.08;24.65;;;4.40;99.90;;;;;;5071362;28;20032;-75
2021/01/02 05:10:33;;;;;;;39.45;23.05;;;4.30;99.90;;;;;;5071370;28;20073;-75
2021/01/02 05:13:12;;;;;;;41.65;22.20;;;4.30;99.90;;;;;;5071237;28;20056;-75
2021/01/02 05:15:39;;;;;;;58.08;30.15;;;4.30;99.90;;;;;;5071180;28;20044;-76
2021/01/02 05:18:05;;;;;;;42.05;22.20;;;4.20;99.90;;;;;;5053323;28;20497;-76
2021/01/02 05:20:31;;;;;;;41.83;16.25;;;4.20;99.90;;;;;;5071060;28;20029;-75
2021/01/02 05:23:08;;;;;;;28.10;16.50;;;4.20;99.90;;;;;;5071175;28;20077;-75
2021/01/02 05:25:34;;;;;;;32.80;16.42;;;4.20;99.90;;;;;;5053041;28;20472;-76
2021/01/02 05:27:59;;;;;;;28.02;16.40;;;4.20;99.90;;;;;;5071039;28;20036;-76
2021/01/02 05:30:27;;;;;;;30.88;18.77;;;4.20;99.90;;;;;;5070819;28;20053;-75
2021/01/02 05:33:13;;;;;;;42.67;24.88;;;4.20;99.90;;;;;;5071082;28;20043;-75
2021/01/02 05:35:42;;;;;;;36.55;20.83;;;4.20;99.90;;;;;;5071262;28;20029;-75
2021/01/02 05:38:19;;;;;;;29.50;18.02;;;4.20;99.90;;;;;;5071045;28;20028;-75
2021/01/02 05:40:51;;;;;;;24.70;15.15;;;4.20;99.90;;;;;;5070773;28;20213;-76
2021/01/02 05:43:21;;;;;;;26.77;15.60;;;4.10;99.90;;;;;;5071054;28;20021;-75
2021/01/02 05:45:48;;;;;;;23.85;15.48;;;4.20;99.90;;;;;;5070907;28;20021;-76
2021/01/02 05:48:23;;;;;;;30.67;18.38;;;4.10;99.90;;;;;;5070853;28;20384;-76
2021/01/02 05:50:57;;;;;;;27.05;17.40;;;4.10;99.90;;;;;;5070833;28;20486;-76
2021/01/02 05:53:28;;;;;;;29.35;19.15;;;4.10;99.90;;;;;;5070885;28;20024;-75
2021/01/02 05:55:59;;;;;;;21.45;13.45;;;4.10;99.90;;;;;;5071079;28;20833;-76
2021/01/02 05:58:25;;;;;;;22.15;13.70;;;4.10;99.90;;;;;;5070760;28;20044;-76
2021/01/02 06:01:07;;;;;;;23.35;14.75;;;4.10;99.90;;;;;;5070663;28;20094;-76
2021/01/02 06:03:37;;;;;;;22.45;14.77;;;4.10;99.90;;;;;;5070845;28;20472;-76
2021/01/02 06:06:11;;;;;;;25.80;17.30;;;4.10;99.90;;;;;;5070917;28;20048;-76
2021/01/02 06:08:55;;;;;;;23.77;14.43;;;4.10;99.90;;;;;;5070756;28;20032;-76
2021/01/02 06:11:22;;;;;;;19.48;13.07;;;4.10;99.90;;;;;;5074561;28;20024;-75
2021/01/02 06:13:53;;;;;;;22.20;14.90;;;4.10;99.90;;;;;;5074533;28;20032;-76
2021/01/02 06:16:19;;;;;;;;;;;4.10;99.90;;;;;;5074974;28;20020;-76
2021/01/02 06:18:47;;;;;;;34.15;22.98;;;4.10;99.90;;;;;;5074537;28;19905;-76
2021/01/02 06:21:15;;;;;;;39.13;22.77;;;4.00;99.90;;;;;;5074383;28;20025;-76
2021/01/02 06:23:42;;;;;;;57.60;31.23;;;4.00;99.90;;;;;;5074521;28;20024;-76
2021/01/02 06:26:10;;;;;;;53.25;29.98;;;3.90;99.90;;;;;;5074435;28;20025;-76
2021/01/02 06:28:38;;;;;;;45.22;26.50;;;3.90;99.90;;;;;;5074234;28;20020;-76
2021/01/02 06:31:08;;;;;;;37.22;24.30;;;3.90;99.90;;;;;;5074299;28;20103;-76
2021/01/02 06:33:34;;;;;;;52.35;27.55;;;3.90;99.90;;;;;;5074228;28;20021;-76
2021/01/02 06:36:01;;;;;;;73.95;40.58;;;3.90;99.90;;;;;;5074011;28;20438;-76
2021/01/02 06:38:28;;;;;;;101.22;48.58;;;3.90;99.90;;;;;;5074103;28;20107;-76
2021/01/02 06:40:56;;;;;;;76.38;40.03;;;3.90;99.90;;;;;;5074042;28;20029;-76
2021/01/02 06:43:25;;;;;;;58.42;36.00;;;4.00;99.90;;;;;;5074064;28;20464;-76
2021/01/02 06:45:55;;;;;;;71.82;41.17;;;3.90;99.90;;;;;;5073945;28;20028;-75
2021/01/02 06:48:24;;;;;;;86.88;54.28;;;3.90;99.90;;;;;;5073945;28;20488;-75
2021/01/02 06:50:51;;;;;;;90.45;51.97;;;3.90;99.90;;;;;;5073881;28;20060;-75
2021/01/02 06:53:34;;;;;;;96.90;51.55;;;3.90;99.90;;;;;;5055766;28;20031;-75
2021/01/02 06:56:10;;;;;;;110.32;62.47;;;3.90;99.90;;;;;;5073744;28;20114;-75
2021/01/02 06:58:46;;;;;;;112.55;61.38;;;3.90;99.90;;;;;;5073591;28;20631;-75
2021/01/02 07:01:18;;;;;;;109.20;60.05;;;3.90;99.90;;;;;;5073622;28;20510;-75
2021/01/02 07:03:50;;;;;;;87.28;51.92;;;3.90;99.90;;;;;;5055706;28;20024;-74
2021/01/02 07:06:24;;;;;;;78.47;43.15;;;3.90;99.90;;;;;;5073740;28;20028;-74
2021/01/02 07:09:15;;;;;;;90.93;57.92;;;4.00;99.90;;;;;;5055636;28;20430;-74
2021/01/02 07:11:43;;;;;;;;;;;4.00;99.90;;;;;;5073846;28;20025;-73
2021/01/02 07:14:12;;;;;;;156.65;88.90;;;4.30;99.90;;;;;;5073478;28;19958;-73
2021/01/02 07:16:43;;;;;;;126.63;75.47;;;4.30;99.90;;;;;;5073462;28;20082;-74
2021/01/02 07:19:27;;;;;;;140.38;76.55;;;4.30;99.90;;;;;;5073380;28;20028;-74
2021/01/02 07:22:17;;;;;;;142.75;83.30;;;4.20;99.90;;;;;;5072229;28;20378;-74
2021/01/02 07:24:47;;;;;;;;;;;4.30;99.90;;;;;;5073644;28;20040;-74
2021/01/02 07:27:30;;;;;;;140.18;80.32;;;4.30;99.90;;;;;;5072865;28;19998;-74
2021/01/02 07:30:08;;;;;;;159.05;90.32;;;4.30;99.90;;;;;;5072833;28;20495;-74
2021/01/02 07:32:39;;;;;;;143.77;83.63;;;4.30;99.90;;;;;;5054933;28;20115;-74
2021/01/02 07:35:09;;;;;;;125.43;70.55;;;4.40;99.90;;;;;;5072991;28;20598;-74
2021/01/02 07:37:41;;;;;;;106.47;61.13;;;4.40;99.90;;;;;;5072896;28;20035;-74
2021/01/02 07:40:08;;;;;;;97.43;59.75;;;4.40;99.90;;;;;;5054229;28;20120;-74
2021/01/02 07:42:39;;;;;;;97.32;60.00;;;4.50;99.90;;;;;;5071939;28;20024;-74
2021/01/02 07:45:13;;;;;;;111.47;70.32;;;4.60;99.90;;;;;;5072190;28;20095;-74
2021/01/02 07:47:57;;;;;;;115.47;71.07;;;4.60;99.90;;;;;;5072456;28;20158;-74
2021/01/02 07:50:25;;;;;;;111.05;65.45;;;4.70;99.90;;;;;;5072427;28;20479;-74
2021/01/02 07:52:58;;;;;;;109.25;62.85;;;4.70;99.90;;;;;;5072351;28;20115;-74
2021/01/02 07:55:26;;;;;;;81.15;47.35;;;4.90;99.90;;;;;;5072573;28;20025;-74
2021/01/02 07:57:53;;;;;;;65.07;39.72;;;4.90;99.90;;;;;;5072393;28;20051;-74
2021/01/02 08:00:20;;;;;;;63.28;38.90;;;5.00;99.90;;;;;;5072322;28;20032;-74
2021/01/02 08:02:46;;;;;;;51.28;29.58;;;5.10;99.90;;;;;;5072272;28;20055;-74
2021/01/02 08:05:14;;;;;;;44.03;24.80;;;5.20;99.90;;;;;;5072285;28;20024;-74
2021/01/02 08:07:41;;;;;;;37.65;22.45;;;5.40;99.90;;;;;;5072187;28;20033;-74
2021/01/02 08:10:12;;;;;;;41.10;22.58;;;5.50;99.90;;;;;;5072113;28;20016;-74
2021/01/02 08:12:49;;;;;;;46.72;25.58;;;5.60;99.90;;;;;;5072086;28;20021;-74
2021/01/02 08:15:24;;;;;;;47.85;26.15;;;5.70;99.90;;;;;;5072119;28;20503;-74
2021/01/02 08:17:50;;;;;;;37.80;21.33;;;5.80;99.90;;;;;;5072173;28;20032;-74
2021/01/02 08:20:16;;;;;;;29.90;18.02;;;5.90;99.90;;;;;;5072198;28;20490;-75
2021/01/02 08:22:42;;;;;;;36.53;18.50;;;6.00;99.90;;;;;;5071993;28;20043;-74
2021/01/02 08:25:16;;;;;;;32.75;17.83;;;6.20;99.90;;;;;;5071784;28;20027;-75
2021/01/02 08:27:43;;;;;;;41.33;20.77;;;6.30;99.90;;;;;;5071891;28;20032;-74
2021/01/02 08:30:11;;;;;;;42.25;21.75;;;6.50;99.90;;;;;;5071641;28;20048;-75
2021/01/02 08:32:41;;;;;;;47.78;21.08;;;6.60;99.90;;;;;;5071659;28;20028;-75
2021/01/02 08:35:18;;;;;;;23.88;14.82;;;6.70;99.90;;;;;;5071637;28;20024;-74
2021/01/02 08:37:46;;;;;;;22.30;13.18;;;6.90;99.90;;;;;;5071670;28;20029;-74
2021/01/02 08:40:14;;;;;;;30.33;16.98;;;7.00;99.90;;;;;;5071577;28;20862;-75
2021/01/02 08:42:42;;;;;;;28.08;17.40;;;7.10;99.90;;;;;;5071463;28;20055;-75
2021/01/02 08:45:10;;;;;;;26.50;15.65;;;7.30;99.90;;;;;;5071544;28;20460;-75
2021/01/02 08:47:37;;;;;;;24.60;15.77;;;7.40;99.90;;;;;;5071387;28;20028;-75
2021/01/02 08:50:15;;;;;;;23.33;14.13;;;7.50;99.90;;;;;;5071477;28;20038;-74
2021/01/02 08:52:42;;;;;;;20.35;14.13;;;7.60;99.90;;;;;;5071409;28;20032;-75
2021/01/02 08:55:15;;;;;;;23.45;14.77;;;7.80;99.90;;;;;;5071400;28;20103;-75
2021/01/02 08:57:53;;;;;;;23.42;13.25;;;7.90;99.90;;;;;;5071365;28;20047;-75
2021/01/02 09:00:29;;;;;;;19.20;12.63;;;8.00;99.90;;;;;;5071183;28;20109;-75
2021/01/02 09:02:54;;;;;;;28.67;15.85;;;8.10;99.90;;;;;;5071127;28;20085;-75
2021/01/02 09:05:40;;;;;;;26.23;15.40;;;8.30;99.90;;;;;;5053313;28;20115;-75
2021/01/02 09:08:06;;;;;;;21.92;13.20;;;8.50;99.90;;;;;;5071214;28;20029;-75
2021/01/02 09:10:55;;;;;;;20.08;12.27;;;8.70;99.90;;;;;;5053252;28;20031;-75
2021/01/02 09:13:24;;;;;;;21.48;13.35;;;8.80;99.90;;;;;;5071132;28;20479;-75
2021/01/02 09:16:03;;;;;;;21.05;12.98;;;8.80;99.90;;;;;;5071133;28;20033;-75
2021/01/02 09:18:32;;;;;;;18.83;11.75;;;9.00;99.90;;;;;;5071201;28;20365;-75
2021/01/02 09:21:14;;;;;;;25.65;14.38;;;9.10;99.90;;;;;;5070995;28;20024;-75
2021/01/02 09:23:42;;;;;;;23.05;14.32;;;9.30;99.90;;;;;;5071054;28;20029;-75
2021/01/02 09:26:21;;;;;;;28.70;17.38;;;9.40;99.90;;;;;;5070925;28;20031;-75
2021/01/02 09:28:47;;;;;;;22.30;13.65;;;9.50;99.90;;;;;;5070810;28;20033;-75
2021/01/02 09:31:13;;;;;;;20.33;12.23;;;9.70;99.90;;;;;;5070943;28;20036;-75
2021/01/02 09:33:40;;;;;;;41.85;13.20;;;9.70;99.90;;;;;;5070959;28;20483;-75
2021/01/02 09:36:06;;;;;;;25.27;14.52;;;9.70;99.90;;;;;;5070961;28;20106;-75
2021/01/02 09:38:32;;;;;;;20.65;10.70;;;9.80;99.90;;;;;;5070914;28;20050;-74
2021/01/02 09:40:58;;;;;;;12.93;8.80;;;9.80;99.90;;;;;;5070920;28;20119;-75
2021/01/02 09:43:24;;;;;;;19.65;13.23;;;10.00;98.20;;;;;;5070987;28;20040;-75
2021/01/02 09:45:50;;;;;;;35.90;14.70;;;10.00;99.00;;;;;;5070433;28;20116;-75
2021/01/02 09:48:17;;;;;;;25.75;12.73;;;10.20;98.50;;;;;;5070862;28;20442;-75
2021/01/02 09:50:44;;;;;;;14.13;9.20;;;10.30;99.90;;;;;;5070757;28;20048;-75
2021/01/02 09:53:10;;;;;;;16.65;10.15;;;10.40;98.20;;;;;;5070714;28;20596;-75
2021/01/02 09:55:37;;;;;;;22.95;12.73;;;10.70;99.60;;;;;;5070781;28;20024;-75
2021/01/02 09:58:03;;;;;;;16.35;11.07;;;10.80;97.70;;;;;;5070770;28;20111;-75
2021/01/02 10:00:29;;;;;;;17.40;11.63;;;10.90;96.60;;;;;;5070684;28;20033;-75
2021/01/02 10:02:55;;;;;;;13.60;9.00;;;11.10;95.80;;;;;;5070584;28;20033;-75
2021/01/02 10:05:23;;;;;;;15.38;8.40;;;11.10;94.20;;;;;;5070426;28;20487;-74
2021/01/02 10:07:48;;;;;;;67.63;12.48;;;11.30;93.80;;;;;;5070477;28;20082;-74
2021/01/02 10:10:16;;;;;;;11.95;7.80;;;11.20;95.20;;;;;;5070603;28;20020;-75
2021/01/02 10:12:46;;;;;;;17.95;9.18;;;11.30;94.40;;;;;;5070599;28;20028;-75
2021/01/02 10:15:14;;;;;;;17.35;9.88;;;11.50;93.50;;;;;;5070637;28;20037;-74
2021/01/02 10:17:39;;;;;;;16.33;9.20;;;11.70;93.60;;;;;;5070477;28;20093;-74
2021/01/02 10:20:07;;;;;;;12.60;8.32;;;11.70;92.60;;;;;;5070586;28;20476;-74
2021/01/02 10:22:33;;;;;;;13.93;9.05;;;11.70;91.80;;;;;;5070283;28;20025;-74
2021/01/02 10:24:58;;;;;;;13.82;10.40;;;11.90;92.70;;;;;;5070358;28;20017;-74
2021/01/02 10:27:26;;;;;;;13.30;10.15;;;11.90;91.70;;;;;;5069515;28;20434;-74
2021/01/02 10:29:53;;;;;;;15.85;9.43;;;12.00;91.80;;;;;;5062781;28;20048;-74
2021/01/02 10:32:22;;;;;;;15.27;9.32;;;12.20;90.80;;;;;;5057390;28;20036;-74
2021/01/02 10:34:50;;;;;;;20.90;11.80;;;12.20;90.50;;;;;;5050404;28;20029;-75
2021/01/02 10:37:23;;;;;;;15.52;9.15;;;12.30;90.50;;;;;;5050367;28;20056;-75
2021/01/02 10:39:50;;;;;;;11.60;7.68;;;12.40;90.30;;;;;;5050319;28;20056;-75
2021/01/02 10:42:20;;;;;;;13.52;8.73;;;12.50;88.80;;;;;;5050179;28;20032;-75
2021/01/02 10:44:47;;;;;;;24.23;13.57;;;12.70;90.60;;;;;;5050261;28;20017;-74
2021/01/02 10:47:20;;;;;;;18.35;11.68;;;12.90;90.70;;;;;;5050348;28;20086;-75
2021/01/02 10:49:47;;;;;;;15.85;9.30;;;13.00;87.70;;;;;;5050287;28;20021;-75
2021/01/02 10:52:22;;;;;;;16.17;9.23;;;13.00;87.10;;;;;;5050085;28;20107;-75
2021/01/02 10:54:49;;;;;;;14.18;9.70;;;13.00;83.40;;;;;;5050396;28;20021;-75
2021/01/02 10:57:16;;;;;;;14.60;9.18;;;13.10;85.20;;;;;;5052224;28;20033;-75
2021/01/02 10:59:44;;;;;;;18.42;11.13;;;13.20;84.90;;;;;;5053990;28;20029;-75
2021/01/02 11:02:11;;;;;;;18.92;10.60;;;13.30;85.90;;;;;;5053625;28;20036;-74
2021/01/02 11:04:37;;;;;;;17.50;9.13;;;13.40;84.00;;;;;;5053782;28;20021;-74
2021/01/02 11:07:04;;;;;;;20.60;10.10;;;13.50;84.80;;;;;;5053867;28;20025;-74
2021/01/02 11:09:30;;;;;;;18.25;10.55;;;13.50;82.50;;;;;;5053799;28;20021;-74
2021/01/02 11:11:56;;;;;;;17.52;10.88;;;13.60;83.60;;;;;;5053687;28;20024;-75
2021/01/02 11:14:23;;;;;;;12.45;8.13;;;13.70;85.10;;;;;;5053197;28;20025;-74
2021/01/02 11:16:49;;;;;;;11.85;8.30;;;13.70;80.40;;;;;;5053284;28;20032;-74
2021/01/02 11:19:27;;;;;;;14.20;9.48;;;13.70;79.40;;;;;;5051736;28;20033;-75
2021/01/02 11:21:56;;;;;;;15.85;9.85;;;13.80;81.70;;;;;;5052289;28;20017;-75
2021/01/02 11:24:24;;;;;;;14.25;8.38;;;13.90;81.80;;;;;;5052545;28;20021;-74
2021/01/02 11:26:55;;;;;;;11.15;7.75;;;13.90;81.10;;;;;;5052633;28;20033;-74
2021/01/02 11:29:23;;;;;;;13.98;8.82;;;13.90;79.60;;;;;;5052656;28;20061;-75
2021/01/02 11:31:50;;;;;;;16.38;10.77;;;14.00;80.70;;;;;;5052848;28;20087;-75
2021/01/02 11:34:17;;;;;;;18.10;11.40;;;14.10;78.50;;;;;;5052769;28;20045;-74
2021/01/02 11:36:46;;;;;;;15.77;8.50;;;14.20;82.20;;;;;;5052828;28;20029;-74
2021/01/02 11:39:12;;;;;;;15.50;7.88;;;14.20;78.60;;;;;;5052793;28;20029;-74
2021/01/02 11:41:40;;;;;;;14.05;8.07;;;14.20;78.50;;;;;;5052676;28;20025;-74
2021/01/02 11:44:07;;;;;;;14.57;9.40;;;14.30;78.30;;;;;;5052797;28;20104;-74
2021/01/02 11:46:40;;;;;;;14.60;8.40;;;14.40;78.10;;;;;;5052477;28;20017;-75
2021/01/02 11:49:08;;;;;;;12.90;8.38;;;14.30;77.30;;;;;;5052648;28;20553;-74
2021/01/02 11:51:34;;;;;;;21.95;13.32;;;14.60;79.00;;;;;;5052572;28;20104;-75
2021/01/02 11:54:00;;;;;;;16.80;8.80;;;14.70;77.40;;;;;;5052534;28;20039;-75
2021/01/02 11:56:27;;;;;;;16.35;9.70;;;14.70;76.70;;;;;;5052538;28;20029;-75
2021/01/02 11:58:57;;;;;;;14.77;9.55;;;14.80;76.90;;;;;;5052441;28;20033;-75
2021/01/02 12:01:34;;;;;;;17.52;8.40;;;14.90;74.10;;;;;;5052336;28;20059;-75
2021/01/02 12:04:00;;;;;;;16.77;8.27;;;14.60;75.00;;;;;;5052397;28;20029;-74
2021/01/02 12:06:30;;;;;;;18.40;9.57;;;14.40;76.00;;;;;;5052365;28;20353;-75
2021/01/02 12:08:57;;;;;;;19.13;11.38;;;14.00;76.00;;;;;;5051733;28;20487;-74
2021/01/02 12:11:28;;;;;;;15.73;10.25;;;13.80;76.80;;;;;;5052223;28;20029;-74
2021/01/02 12:13:54;;;;;;;23.10;10.15;;;13.60;77.70;;;;;;5052329;28;20029;-74
2021/01/02 12:16:20;;;;;;;17.40;10.15;;;13.40;76.60;;;;;;5052284;28;20029;-74
2021/01/02 12:18:46;;;;;;;16.77;10.02;;;13.20;77.40;;;;;;5058924;28;20031;-74
2021/01/02 12:21:18;;;;;;;19.52;10.23;;;13.10;77.80;;;;;;5071968;28;20029;-74
2021/01/02 12:23:44;;;;;;;17.05;10.18;;;12.80;78.30;;;;;;5072086;28;20016;-74
2021/01/02 12:26:10;;;;;;;19.25;10.60;;;12.80;79.10;;;;;;5054207;28;20548;-74
2021/01/02 12:28:36;;;;;;;16.40;9.30;;;12.80;79.40;;;;;;5072058;28;20031;-75
2021/01/02 12:31:05;;;;;;;14.93;9.15;;;12.70;79.30;;;;;;5072037;28;20025;-74
2021/01/02 12:33:31;;;;;;;25.48;12.55;;;12.60;79.60;;;;;;5072016;28;20021;-74
2021/01/02 12:35:57;;;;;;;33.35;15.70;;;12.50;80.30;;;;;;5072015;28;20025;-74
2021/01/02 12:38:24;;;;;;;95.68;46.67;;;12.40;79.70;;;;;;5071680;28;20494;-74
2021/01/02 12:40:51;;;;;;;29.27;15.90;;;12.30;80.80;;;;;;5071806;28;20082;-74
2021/01/02 12:43:17;;;;;;;26.85;13.50;;;12.20;81.60;;;;;;5071784;28;20013;-73
2021/01/02 12:45:43;;;;;;;35.40;22.70;;;12.00;83.40;;;;;;5071694;28;20027;-74
2021/01/02 12:48:09;;;;;;;23.05;11.00;;;11.90;83.70;;;;;;5071701;28;20465;-74
2021/01/02 12:50:35;;;;;;;29.42;16.40;;;11.80;82.00;;;;;;5071809;28;20024;-74
2021/01/02 12:53:01;;;;;;;27.20;14.88;;;11.80;82.90;;;;;;5071609;28;20028;-74